sensor_id;sensor_type;location;lat;lon;timestamp;P1;durP1;ratioP1;P2;durP2;ratioP2
177;SDS011;77;48.792;9.032;2023-03-20T00:02:18;10.47;;;6.80;;
177;SDS011;77;48.792;9.032;2023-03-20T00:04:44;8.80;;;5.70;;
177;SDS011;77;48.792;9.032;2023-03-20T00:07:10;10.67;;;5.90;;
177;SDS011;77;48.792;9.032;2023-03-20T00:09:36;8.50;;;5.40;;
177;SDS011;77;48.792;9.032;2023-03-20T00:12:01;9.47;;;5.73;;
177;SDS011;77;48.792;9.032;2023-03-20T00:14:27;8.77;;;5.53;;
177;SDS011;77;48.792;9.032;2023-03-20T00:16:52;9.17;;;5.00;;
177;SDS011;77;48.792;9.032;2023-03-20T00:19:18;9.20;;;5.00;;
177;SDS011;77;48.792;9.032;2023-03-20T00:21:44;6.37;;;4.00;;
177;SDS011;77;48.792;9.032;2023-03-20T00:24:09;7.27;;;4.43;;
177;SDS011;77;48.792;9.032;2023-03-20T00:26:38;7.43;;;4.50;;
177;SDS011;77;48.792;9.032;2023-03-20T00:29:04;8.90;;;4.50;;
177;SDS011;77;48.792;9.032;2023-03-20T00:31:30;7.67;;;4.33;;
177;SDS011;77;48.792;9.032;2023-03-20T00:33:56;8.17;;;4.50;;
177;SDS011;77;48.792;9.032;2023-03-20T00:36:22;7.40;;;4.40;;
177;SDS011;77;48.792;9.032;2023-03-20T00:38:47;8.47;;;5.07;;
177;SDS011;77;48.792;9.032;2023-03-20T00:41:19;9.77;;;4.60;;
177;SDS011;77;48.792;9.032;2023-03-20T00:43:46;8.03;;;4.50;;
177;SDS011;77;48.792;9.032;2023-03-20T00:46:12;7.10;;;3.80;;
177;SDS011;77;48.792;9.032;2023-03-20T00:48:38;6.30;;;3.80;;
177;SDS011;77;48.792;9.032;2023-03-20T00:51:04;7.47;;;3.80;;
177;SDS011;77;48.792;9.032;2023-03-20T00:53:29;6.77;;;3.97;;
177;SDS011;77;48.792;9.032;2023-03-20T00:55:54;6.70;;;4.07;;
177;SDS011;77;48.792;9.032;2023-03-20T00:58:20;6.00;;;3.67;;
177;SDS011;77;48.792;9.032;2023-03-20T01:00:46;6.50;;;3.50;;
177;SDS011;77;48.792;9.032;2023-03-20T01:03:14;6.10;;;3.33;;
177;SDS011;77;48.792;9.032;2023-03-20T01:05:39;5.10;;;3.20;;
177;SDS011;77;48.792;9.032;2023-03-20T01:08:08;5.33;;;3.07;;
177;SDS011;77;48.792;9.032;2023-03-20T01:10:34;5.50;;;3.00;;
177;SDS011;77;48.792;9.032;2023-03-20T01:12:59;5.60;;;2.97;;
177;SDS011;77;48.792;9.032;2023-03-20T01:15:26;5.10;;;2.60;;
177;SDS011;77;48.792;9.032;2023-03-20T01:17:55;5.00;;;2.70;;
177;SDS011;77;48.792;9.032;2023-03-20T01:20:21;4.93;;;2.77;;
177;SDS011;77;48.792;9.032;2023-03-20T01:22:46;4.83;;;2.73;;
177;SDS011;77;48.792;9.032;2023-03-20T01:25:12;4.30;;;2.40;;
177;SDS011;77;48.792;9.032;2023-03-20T01:27:37;4.80;;;2.83;;
177;SDS011;77;48.792;9.032;2023-03-20T01:30:04;5.33;;;2.77;;
177;SDS011;77;48.792;9.032;2023-03-20T01:32:30;5.63;;;2.60;;
177;SDS011;77;48.792;9.032;2023-03-20T01:34:56;4.40;;;2.40;;
177;SDS011;77;48.792;9.032;2023-03-20T01:37:22;4.20;;;2.33;;
177;SDS011;77;48.792;9.032;2023-03-20T01:39:48;4.07;;;2.33;;
177;SDS011;77;48.792;9.032;2023-03-20T01:42:13;4.30;;;2.30;;
177;SDS011;77;48.792;9.032;2023-03-20T01:44:39;3.87;;;2.23;;
177;SDS011;77;48.792;9.032;2023-03-20T01:47:05;4.03;;;2.30;;
177;SDS011;77;48.792;9.032;2023-03-20T01:52:20;3.80;;;2.23;;
177;SDS011;77;48.792;9.032;2023-03-20T01:54:45;4.17;;;2.47;;
177;SDS011;77;48.792;9.032;2023-03-20T01:57:11;4.73;;;2.70;;
177;SDS011;77;48.792;9.032;2023-03-20T01:59:40;4.37;;;2.50;;
177;SDS011;77;48.792;9.032;2023-03-20T02:02:07;4.50;;;2.73;;
177;SDS011;77;48.792;9.032;2023-03-20T02:04:34;4.70;;;2.60;;
177;SDS011;77;48.792;9.032;2023-03-20T02:07:00;4.30;;;2.43;;
177;SDS011;77;48.792;9.032;2023-03-20T02:09:28;4.60;;;2.70;;
177;SDS011;77;48.792;9.032;2023-03-20T02:11:53;5.07;;;2.50;;
177;SDS011;77;48.792;9.032;2023-03-20T02:14:18;4.87;;;2.53;;
177;SDS011;77;48.792;9.032;2023-03-20T02:16:43;4.10;;;2.30;;
177;SDS011;77;48.792;9.032;2023-03-20T02:19:18;4.07;;;2.37;;
177;SDS011;77;48.792;9.032;2023-03-20T02:27:12;4.50;;;2.30;;
177;SDS011;77;48.792;9.032;2023-03-20T02:29:47;3.73;;;2.07;;
177;SDS011;77;48.792;9.032;2023-03-20T02:37:58;3.80;;;2.10;;
177;SDS011;77;48.792;9.032;2023-03-20T02:40:30;3.87;;;2.10;;
177;SDS011;77;48.792;9.032;2023-03-20T02:42:59;4.33;;;2.30;;
177;SDS011;77;48.792;9.032;2023-03-20T02:45:27;3.90;;;2.13;;
177;SDS011;77;48.792;9.032;2023-03-20T02:47:54;3.47;;;1.90;;
177;SDS011;77;48.792;9.032;2023-03-20T02:50:26;4.07;;;2.00;;
177;SDS011;77;48.792;9.032;2023-03-20T02:52:55;3.53;;;1.90;;
177;SDS011;77;48.792;9.032;2023-03-20T02:55:25;4.10;;;1.90;;
177;SDS011;77;48.792;9.032;2023-03-20T02:57:56;4.13;;;2.10;;
177;SDS011;77;48.792;9.032;2023-03-20T03:00:25;4.10;;;2.10;;
177;SDS011;77;48.792;9.032;2023-03-20T03:02:52;3.93;;;2.10;;
177;SDS011;77;48.792;9.032;2023-03-20T03:05:20;3.83;;;2.00;;
177;SDS011;77;48.792;9.032;2023-03-20T03:07:46;3.63;;;1.90;;
177;SDS011;77;48.792;9.032;2023-03-20T03:10:14;3.97;;;2.00;;
177;SDS011;77;48.792;9.032;2023-03-20T03:12:43;3.87;;;2.13;;
177;SDS011;77;48.792;9.032;2023-03-20T03:15:12;4.47;;;2.40;;
177;SDS011;77;48.792;9.032;2023-03-20T03:17:38;3.80;;;2.20;;
177;SDS011;77;48.792;9.032;2023-03-20T03:20:04;5.30;;;2.20;;
177;SDS011;77;48.792;9.032;2023-03-20T03:22:32;3.93;;;2.00;;
177;SDS011;77;48.792;9.032;2023-03-20T03:24:58;3.63;;;1.90;;
177;SDS011;77;48.792;9.032;2023-03-20T03:27:25;3.77;;;1.93;;
177;SDS011;77;48.792;9.032;2023-03-20T03:29:52;3.70;;;1.97;;
177;SDS011;77;48.792;9.032;2023-03-20T03:32:27;3.80;;;1.80;;
177;SDS011;77;48.792;9.032;2023-03-20T03:34:53;3.50;;;1.80;;
177;SDS011;77;48.792;9.032;2023-03-20T03:37:20;5.30;;;2.23;;
177;SDS011;77;48.792;9.032;2023-03-20T03:39:49;3.80;;;1.93;;
177;SDS011;77;48.792;9.032;2023-03-20T03:42:15;3.73;;;1.90;;
177;SDS011;77;48.792;9.032;2023-03-20T03:44:45;3.80;;;2.00;;
177;SDS011;77;48.792;9.032;2023-03-20T03:47:13;5.23;;;2.40;;
177;SDS011;77;48.792;9.032;2023-03-20T03:49:41;4.20;;;2.10;;
177;SDS011;77;48.792;9.032;2023-03-20T03:52:08;4.10;;;1.93;;
177;SDS011;77;48.792;9.032;2023-03-20T03:54:35;4.10;;;2.10;;
177;SDS011;77;48.792;9.032;2023-03-20T03:57:02;4.20;;;2.00;;
177;SDS011;77;48.792;9.032;2023-03-20T03:59:29;4.30;;;1.90;;
177;SDS011;77;48.792;9.032;2023-03-20T04:01:56;4.80;;;2.20;;
177;SDS011;77;48.792;9.032;2023-03-20T04:04:23;3.90;;;2.10;;
177;SDS011;77;48.792;9.032;2023-03-20T04:06:49;4.20;;;2.00;;
177;SDS011;77;48.792;9.032;2023-03-20T04:09:15;3.90;;;2.20;;
177;SDS011;77;48.792;9.032;2023-03-20T04:11:40;4.10;;;1.80;;
177;SDS011;77;48.792;9.032;2023-03-20T04:14:05;4.90;;;1.90;;
177;SDS011;77;48.792;9.032;2023-03-20T04:16:30;3.97;;;2.00;;
177;SDS011;77;48.792;9.032;2023-03-20T04:18:55;5.63;;;2.10;;
177;SDS011;77;48.792;9.032;2023-03-20T04:21:22;3.83;;;2.10;;
177;SDS011;77;48.792;9.032;2023-03-20T04:23:47;5.10;;;2.20;;
177;SDS011;77;48.792;9.032;2023-03-20T04:26:12;4.37;;;2.20;;
177;SDS011;77;48.792;9.032;2023-03-20T04:28:38;3.80;;;2.00;;
177;SDS011;77;48.792;9.032;2023-03-20T04:31:03;4.00;;;2.00;;
177;SDS011;77;48.792;9.032;2023-03-20T04:33:28;5.17;;;2.17;;
177;SDS011;77;48.792;9.032;2023-03-20T04:35:54;4.20;;;1.90;;
177;SDS011;77;48.792;9.032;2023-03-20T04:38:20;3.60;;;1.90;;
177;SDS011;77;48.792;9.032;2023-03-20T04:40:46;3.67;;;1.80;;
177;SDS011;77;48.792;9.032;2023-03-20T04:43:11;3.70;;;1.87;;
177;SDS011;77;48.792;9.032;2023-03-20T04:45:36;3.80;;;2.00;;
177;SDS011;77;48.792;9.032;2023-03-20T04:48:01;3.53;;;1.80;;
177;SDS011;77;48.792;9.032;2023-03-20T04:50:27;4.03;;;2.00;;
177;SDS011;77;48.792;9.032;2023-03-20T04:52:52;3.67;;;1.83;;
177;SDS011;77;48.792;9.032;2023-03-20T04:55:18;4.43;;;1.90;;
177;SDS011;77;48.792;9.032;2023-03-20T04:57:43;3.80;;;2.00;;
177;SDS011;77;48.792;9.032;2023-03-20T05:00:09;5.33;;;2.00;;
177;SDS011;77;48.792;9.032;2023-03-20T05:02:34;3.97;;;1.90;;
177;SDS011;77;48.792;9.032;2023-03-20T05:05:00;3.40;;;1.70;;
177;SDS011;77;48.792;9.032;2023-03-20T05:07:25;3.60;;;1.90;;
177;SDS011;77;48.792;9.032;2023-03-20T05:09:50;5.20;;;2.10;;
177;SDS011;77;48.792;9.032;2023-03-20T05:12:16;3.43;;;1.80;;
177;SDS011;77;48.792;9.032;2023-03-20T05:14:42;4.93;;;2.10;;
177;SDS011;77;48.792;9.032;2023-03-20T05:17:07;3.90;;;2.00;;
177;SDS011;77;48.792;9.032;2023-03-20T05:19:32;3.70;;;1.87;;
177;SDS011;77;48.792;9.032;2023-03-20T05:21:57;3.90;;;1.90;;
177;SDS011;77;48.792;9.032;2023-03-20T05:24:22;3.90;;;1.90;;
177;SDS011;77;48.792;9.032;2023-03-20T05:26:48;3.93;;;1.90;;
177;SDS011;77;48.792;9.032;2023-03-20T05:29:14;4.00;;;2.00;;
177;SDS011;77;48.792;9.032;2023-03-20T05:31:39;3.90;;;1.90;;
177;SDS011;77;48.792;9.032;2023-03-20T05:34:04;4.50;;;1.93;;
177;SDS011;77;48.792;9.032;2023-03-20T05:36:30;5.03;;;2.20;;
177;SDS011;77;48.792;9.032;2023-03-20T05:38:55;3.50;;;1.80;;
177;SDS011;77;48.792;9.032;2023-03-20T05:41:20;5.20;;;2.10;;
177;SDS011;77;48.792;9.032;2023-03-20T05:43:45;4.30;;;2.00;;
177;SDS011;77;48.792;9.032;2023-03-20T05:46:12;4.37;;;2.03;;
177;SDS011;77;48.792;9.032;2023-03-20T05:48:37;4.50;;;2.00;;
177;SDS011;77;48.792;9.032;2023-03-20T05:51:02;4.23;;;2.00;;
177;SDS011;77;48.792;9.032;2023-03-20T05:53:28;4.53;;;2.10;;
177;SDS011;77;48.792;9.032;2023-03-20T05:55:53;5.00;;;2.03;;
177;SDS011;77;48.792;9.032;2023-03-20T05:58:18;4.30;;;2.00;;
177;SDS011;77;48.792;9.032;2023-03-20T06:00:44;4.60;;;2.00;;
177;SDS011;77;48.792;9.032;2023-03-20T06:03:10;4.00;;;2.10;;
177;SDS011;77;48.792;9.032;2023-03-20T06:05:35;6.07;;;2.47;;
177;SDS011;77;48.792;9.032;2023-03-20T06:08:00;3.90;;;2.07;;
177;SDS011;77;48.792;9.032;2023-03-20T06:10:26;3.83;;;1.90;;
177;SDS011;77;48.792;9.032;2023-03-20T06:12:51;4.00;;;2.20;;
177;SDS011;77;48.792;9.032;2023-03-20T06:15:22;4.97;;;1.87;;
177;SDS011;77;48.792;9.032;2023-03-20T06:17:50;5.90;;;2.37;;
177;SDS011;77;48.792;9.032;2023-03-20T06:20:17;5.80;;;2.07;;
177;SDS011;77;48.792;9.032;2023-03-20T06:22:42;3.80;;;2.10;;
177;SDS011;77;48.792;9.032;2023-03-20T06:25:08;3.90;;;1.97;;
177;SDS011;77;48.792;9.032;2023-03-20T06:27:33;3.90;;;2.17;;
177;SDS011;77;48.792;9.032;2023-03-20T06:30:05;3.60;;;1.90;;
177;SDS011;77;48.792;9.032;2023-03-20T06:32:37;3.87;;;2.00;;
177;SDS011;77;48.792;9.032;2023-03-20T06:35:03;3.73;;;1.90;;
177;SDS011;77;48.792;9.032;2023-03-20T06:40:12;5.37;;;2.00;;
177;SDS011;77;48.792;9.032;2023-03-20T06:42:37;4.87;;;2.07;;
177;SDS011;77;48.792;9.032;2023-03-20T06:45:03;3.60;;;1.87;;
177;SDS011;77;48.792;9.032;2023-03-20T06:47:38;3.83;;;2.13;;
177;SDS011;77;48.792;9.032;2023-03-20T06:50:12;4.10;;;2.23;;
177;SDS011;77;48.792;9.032;2023-03-20T06:52:40;4.40;;;2.40;;
177;SDS011;77;48.792;9.032;2023-03-20T06:55:08;5.00;;;2.10;;
177;SDS011;77;48.792;9.032;2023-03-20T07:03:15;4.40;;;2.50;;
177;SDS011;77;48.792;9.032;2023-03-20T07:05:43;4.60;;;2.50;;
177;SDS011;77;48.792;9.032;2023-03-20T07:08:08;4.30;;;2.30;;
177;SDS011;77;48.792;9.032;2023-03-20T07:13:16;4.40;;;2.50;;
177;SDS011;77;48.792;9.032;2023-03-20T07:15:41;4.90;;;2.40;;
177;SDS011;77;48.792;9.032;2023-03-20T07:18:07;4.47;;;2.40;;
177;SDS011;77;48.792;9.032;2023-03-20T07:20:34;4.67;;;2.60;;
177;SDS011;77;48.792;9.032;2023-03-20T07:22:59;4.40;;;2.40;;
177;SDS011;77;48.792;9.032;2023-03-20T07:25:27;6.23;;;2.37;;
177;SDS011;77;48.792;9.032;2023-03-20T07:27:52;4.90;;;2.70;;
177;SDS011;77;48.792;9.032;2023-03-20T07:30:17;4.43;;;2.67;;
177;SDS011;77;48.792;9.032;2023-03-20T07:32:43;4.20;;;2.57;;
177;SDS011;77;48.792;9.032;2023-03-20T07:35:08;5.40;;;3.07;;
177;SDS011;77;48.792;9.032;2023-03-20T07:37:35;4.90;;;2.50;;
177;SDS011;77;48.792;9.032;2023-03-20T07:40:00;7.03;;;2.83;;
177;SDS011;77;48.792;9.032;2023-03-20T07:42:25;4.40;;;2.50;;
177;SDS011;77;48.792;9.032;2023-03-20T07:44:51;5.10;;;2.60;;
177;SDS011;77;48.792;9.032;2023-03-20T07:47:16;6.07;;;2.80;;
177;SDS011;77;48.792;9.032;2023-03-20T07:49:41;5.30;;;2.53;;
177;SDS011;77;48.792;9.032;2023-03-20T07:52:07;4.10;;;2.60;;
177;SDS011;77;48.792;9.032;2023-03-20T07:54:40;4.50;;;2.80;;
177;SDS011;77;48.792;9.032;2023-03-20T07:57:11;5.10;;;2.63;;
177;SDS011;77;48.792;9.032;2023-03-20T07:59:39;5.07;;;2.87;;
177;SDS011;77;48.792;9.032;2023-03-20T08:04:49;5.03;;;2.60;;
177;SDS011;77;48.792;9.032;2023-03-20T08:07:14;4.30;;;2.60;;
177;SDS011;77;48.792;9.032;2023-03-20T08:09:40;4.10;;;2.57;;
177;SDS011;77;48.792;9.032;2023-03-20T08:12:06;5.10;;;2.70;;
177;SDS011;77;48.792;9.032;2023-03-20T08:14:31;4.10;;;2.47;;
177;SDS011;77;48.792;9.032;2023-03-20T08:16:56;4.47;;;2.80;;
177;SDS011;77;48.792;9.032;2023-03-20T08:19:22;4.70;;;2.30;;
177;SDS011;77;48.792;9.032;2023-03-20T08:21:47;4.60;;;2.77;;
177;SDS011;77;48.792;9.032;2023-03-20T08:24:12;6.37;;;3.13;;
177;SDS011;77;48.792;9.032;2023-03-20T08:26:41;4.67;;;2.50;;
177;SDS011;77;48.792;9.032;2023-03-20T08:29:07;4.90;;;2.70;;
177;SDS011;77;48.792;9.032;2023-03-20T08:31:34;4.10;;;2.57;;
177;SDS011;77;48.792;9.032;2023-03-20T08:34:00;4.37;;;2.60;;
177;SDS011;77;48.792;9.032;2023-03-20T08:36:25;5.67;;;2.83;;
177;SDS011;77;48.792;9.032;2023-03-20T08:38:51;6.43;;;2.63;;
177;SDS011;77;48.792;9.032;2023-03-20T08:41:16;5.57;;;3.00;;
177;SDS011;77;48.792;9.032;2023-03-20T08:43:43;4.30;;;2.60;;
177;SDS011;77;48.792;9.032;2023-03-20T08:46:10;4.40;;;2.77;;
177;SDS011;77;48.792;9.032;2023-03-20T08:48:35;5.10;;;2.63;;
177;SDS011;77;48.792;9.032;2023-03-20T08:51:01;7.13;;;2.77;;
177;SDS011;77;48.792;9.032;2023-03-20T08:53:27;9.80;;;3.10;;
177;SDS011;77;48.792;9.032;2023-03-20T08:55:52;4.30;;;2.63;;
177;SDS011;77;48.792;9.032;2023-03-20T08:58:18;4.50;;;2.57;;
177;SDS011;77;48.792;9.032;2023-03-20T09:00:45;5.03;;;3.10;;
177;SDS011;77;48.792;9.032;2023-03-20T09:03:11;5.40;;;2.63;;
177;SDS011;77;48.792;9.032;2023-03-20T09:05:36;3.93;;;2.53;;
177;SDS011;77;48.792;9.032;2023-03-20T09:08:02;4.10;;;2.40;;
177;SDS011;77;48.792;9.032;2023-03-20T09:10:27;4.97;;;2.50;;
177;SDS011;77;48.792;9.032;2023-03-20T09:12:52;4.03;;;2.53;;
177;SDS011;77;48.792;9.032;2023-03-20T09:15:18;3.87;;;2.50;;
177;SDS011;77;48.792;9.032;2023-03-20T09:17:44;4.50;;;2.83;;
177;SDS011;77;48.792;9.032;2023-03-20T09:20:10;4.63;;;2.77;;
177;SDS011;77;48.792;9.032;2023-03-20T09:22:35;6.23;;;2.83;;
177;SDS011;77;48.792;9.032;2023-03-20T09:25:03;6.37;;;2.60;;
177;SDS011;77;48.792;9.032;2023-03-20T09:27:29;5.83;;;2.80;;
177;SDS011;77;48.792;9.032;2023-03-20T09:29:54;5.00;;;2.63;;
177;SDS011;77;48.792;9.032;2023-03-20T09:32:19;5.43;;;3.03;;
177;SDS011;77;48.792;9.032;2023-03-20T09:34:46;4.80;;;2.87;;
177;SDS011;77;48.792;9.032;2023-03-20T09:37:11;5.10;;;2.67;;
177;SDS011;77;48.792;9.032;2023-03-20T09:39:36;4.50;;;2.80;;
177;SDS011;77;48.792;9.032;2023-03-20T09:42:03;4.77;;;2.97;;
177;SDS011;77;48.792;9.032;2023-03-20T09:44:36;5.70;;;3.10;;
177;SDS011;77;48.792;9.032;2023-03-20T09:47:05;4.00;;;2.83;;
177;SDS011;77;48.792;9.032;2023-03-20T09:49:34;4.33;;;3.03;;
177;SDS011;77;48.792;9.032;2023-03-20T09:52:03;3.97;;;2.73;;
177;SDS011;77;48.792;9.032;2023-03-20T09:54:34;4.40;;;2.90;;
177;SDS011;77;48.792;9.032;2023-03-20T09:57:00;4.03;;;3.03;;
177;SDS011;77;48.792;9.032;2023-03-20T09:59:26;4.73;;;3.00;;
177;SDS011;77;48.792;9.032;2023-03-20T10:01:54;4.70;;;2.60;;
177;SDS011;77;48.792;9.032;2023-03-20T10:04:20;5.90;;;2.93;;
177;SDS011;77;48.792;9.032;2023-03-20T10:06:50;4.73;;;2.57;;
177;SDS011;77;48.792;9.032;2023-03-20T10:09:20;4.43;;;3.00;;
177;SDS011;77;48.792;9.032;2023-03-20T10:12:06;4.07;;;2.80;;
177;SDS011;77;48.792;9.032;2023-03-20T10:14:34;3.57;;;2.70;;
177;SDS011;77;48.792;9.032;2023-03-20T10:17:04;4.67;;;2.87;;
177;SDS011;77;48.792;9.032;2023-03-20T10:19:31;4.10;;;3.03;;
177;SDS011;77;48.792;9.032;2023-03-20T10:22:00;3.83;;;2.80;;
177;SDS011;77;48.792;9.032;2023-03-20T10:24:27;3.80;;;2.70;;
177;SDS011;77;48.792;9.032;2023-03-20T10:26:53;4.13;;;2.87;;
177;SDS011;77;48.792;9.032;2023-03-20T10:29:22;3.87;;;2.97;;
177;SDS011;77;48.792;9.032;2023-03-20T10:31:51;5.90;;;3.00;;
177;SDS011;77;48.792;9.032;2023-03-20T10:34:22;14.53;;;3.10;;
177;SDS011;77;48.792;9.032;2023-03-20T10:36:53;4.67;;;3.20;;
177;SDS011;77;48.792;9.032;2023-03-20T10:39:26;5.93;;;3.10;;
177;SDS011;77;48.792;9.032;2023-03-20T10:41:56;5.23;;;3.37;;
177;SDS011;77;48.792;9.032;2023-03-20T10:44:26;6.40;;;2.90;;
177;SDS011;77;48.792;9.032;2023-03-20T10:46:52;5.03;;;3.40;;
177;SDS011;77;48.792;9.032;2023-03-20T10:49:20;6.57;;;3.60;;
177;SDS011;77;48.792;9.032;2023-03-20T10:51:51;5.47;;;3.90;;
177;SDS011;77;48.792;9.032;2023-03-20T10:54:20;6.03;;;4.10;;
177;SDS011;77;48.792;9.032;2023-03-20T10:56:46;5.77;;;4.00;;
177;SDS011;77;48.792;9.032;2023-03-20T10:59:16;6.20;;;4.07;;
177;SDS011;77;48.792;9.032;2023-03-20T11:01:44;6.70;;;4.30;;
177;SDS011;77;48.792;9.032;2023-03-20T11:04:09;5.37;;;4.00;;
177;SDS011;77;48.792;9.032;2023-03-20T11:06:37;6.03;;;4.27;;
177;SDS011;77;48.792;9.032;2023-03-20T11:09:10;6.33;;;4.37;;
177;SDS011;77;48.792;9.032;2023-03-20T11:11:35;5.97;;;4.00;;
177;SDS011;77;48.792;9.032;2023-03-20T11:14:02;5.80;;;4.30;;
177;SDS011;77;48.792;9.032;2023-03-20T11:27:39;6.53;;;4.67;;
177;SDS011;77;48.792;9.032;2023-03-20T11:30:05;7.20;;;5.07;;
177;SDS011;77;48.792;9.032;2023-03-20T11:32:31;5.27;;;3.90;;
177;SDS011;77;48.792;9.032;2023-03-20T11:35:09;6.37;;;4.57;;
177;SDS011;77;48.792;9.032;2023-03-20T11:37:35;8.40;;;4.80;;
177;SDS011;77;48.792;9.032;2023-03-20T11:40:09;6.60;;;4.50;;
177;SDS011;77;48.792;9.032;2023-03-20T11:45:15;6.30;;;4.33;;
177;SDS011;77;48.792;9.032;2023-03-20T11:47:40;5.60;;;3.80;;
177;SDS011;77;48.792;9.032;2023-03-20T11:50:23;6.03;;;3.97;;
177;SDS011;77;48.792;9.032;2023-03-20T11:52:48;5.30;;;3.93;;
177;SDS011;77;48.792;9.032;2023-03-20T11:55:21;5.50;;;4.20;;
177;SDS011;77;48.792;9.032;2023-03-20T11:57:48;7.30;;;4.57;;
177;SDS011;77;48.792;9.032;2023-03-20T12:00:16;5.53;;;4.47;;
177;SDS011;77;48.792;9.032;2023-03-20T12:02:43;6.50;;;4.23;;
177;SDS011;77;48.792;9.032;2023-03-20T12:05:17;6.37;;;4.13;;
177;SDS011;77;48.792;9.032;2023-03-20T12:07:43;6.20;;;3.97;;
177;SDS011;77;48.792;9.032;2023-03-20T12:10:09;5.13;;;3.93;;
177;SDS011;77;48.792;9.032;2023-03-20T12:32:09;4.90;;;3.93;;
177;SDS011;77;48.792;9.032;2023-03-20T12:34:40;5.77;;;4.00;;
177;SDS011;77;48.792;9.032;2023-03-20T12:37:07;5.77;;;3.73;;
177;SDS011;77;48.792;9.032;2023-03-20T12:39:34;6.53;;;4.30;;
177;SDS011;77;48.792;9.032;2023-03-20T12:42:03;5.60;;;4.40;;
177;SDS011;77;48.792;9.032;2023-03-20T12:44:38;6.57;;;4.50;;
177;SDS011;77;48.792;9.032;2023-03-20T12:47:10;8.90;;;4.07;;
177;SDS011;77;48.792;9.032;2023-03-20T12:49:40;6.93;;;4.30;;
177;SDS011;77;48.792;9.032;2023-03-20T12:52:09;5.70;;;4.10;;
177;SDS011;77;48.792;9.032;2023-03-20T12:54:41;5.00;;;3.80;;
177;SDS011;77;48.792;9.032;2023-03-20T12:57:10;5.43;;;3.97;;
177;SDS011;77;48.792;9.032;2023-03-20T12:59:43;7.60;;;4.23;;
177;SDS011;77;48.792;9.032;2023-03-20T13:02:14;5.90;;;4.13;;
177;SDS011;77;48.792;9.032;2023-03-20T13:04:43;5.63;;;3.93;;
177;SDS011;77;48.792;9.032;2023-03-20T13:07:14;6.50;;;3.93;;
177;SDS011;77;48.792;9.032;2023-03-20T13:09:47;5.20;;;3.70;;
177;SDS011;77;48.792;9.032;2023-03-20T13:12:15;5.37;;;4.00;;
177;SDS011;77;48.792;9.032;2023-03-20T13:14:43;5.60;;;3.70;;
177;SDS011;77;48.792;9.032;2023-03-20T13:17:14;4.73;;;3.93;;
177;SDS011;77;48.792;9.032;2023-03-20T13:19:41;7.00;;;4.07;;
177;SDS011;77;48.792;9.032;2023-03-20T13:22:12;4.40;;;3.40;;
177;SDS011;77;48.792;9.032;2023-03-20T13:24:39;4.97;;;3.53;;
177;SDS011;77;48.792;9.032;2023-03-20T13:27:12;5.57;;;3.90;;
177;SDS011;77;48.792;9.032;2023-03-20T13:29:43;5.73;;;3.93;;
177;SDS011;77;48.792;9.032;2023-03-20T13:32:15;5.80;;;3.80;;
177;SDS011;77;48.792;9.032;2023-03-20T13:34:48;5.70;;;4.17;;
177;SDS011;77;48.792;9.032;2023-03-20T13:37:16;5.63;;;4.00;;
177;SDS011;77;48.792;9.032;2023-03-20T13:39:44;4.90;;;3.00;;
177;SDS011;77;48.792;9.032;2023-03-20T13:42:11;5.03;;;3.30;;
177;SDS011;77;48.792;9.032;2023-03-20T13:44:37;3.40;;;2.80;;
177;SDS011;77;48.792;9.032;2023-03-20T13:47:04;4.57;;;3.10;;
177;SDS011;77;48.792;9.032;2023-03-20T13:49:32;3.17;;;2.87;;
177;SDS011;77;48.792;9.032;2023-03-20T13:52:00;3.97;;;2.90;;
177;SDS011;77;48.792;9.032;2023-03-20T13:54:33;3.90;;;2.90;;
177;SDS011;77;48.792;9.032;2023-03-20T13:57:04;4.53;;;3.07;;
177;SDS011;77;48.792;9.032;2023-03-20T13:59:35;4.43;;;3.03;;
177;SDS011;77;48.792;9.032;2023-03-20T14:02:04;3.87;;;3.30;;
177;SDS011;77;48.792;9.032;2023-03-20T14:04:33;5.33;;;2.90;;
177;SDS011;77;48.792;9.032;2023-03-20T14:06:59;3.10;;;2.60;;
177;SDS011;77;48.792;9.032;2023-03-20T14:09:25;4.83;;;3.20;;
177;SDS011;77;48.792;9.032;2023-03-20T14:11:51;3.60;;;2.60;;
177;SDS011;77;48.792;9.032;2023-03-20T14:14:18;4.00;;;3.10;;
177;SDS011;77;48.792;9.032;2023-03-20T14:16:47;5.40;;;2.60;;
177;SDS011;77;48.792;9.032;2023-03-20T14:19:15;3.00;;;2.50;;
177;SDS011;77;48.792;9.032;2023-03-20T14:21:45;3.20;;;2.47;;
177;SDS011;77;48.792;9.032;2023-03-20T14:24:11;3.17;;;2.60;;
177;SDS011;77;48.792;9.032;2023-03-20T14:26:38;3.43;;;2.70;;
177;SDS011;77;48.792;9.032;2023-03-20T14:29:18;4.30;;;2.70;;
177;SDS011;77;48.792;9.032;2023-03-20T14:31:44;3.10;;;2.40;;
177;SDS011;77;48.792;9.032;2023-03-20T14:34:15;2.93;;;2.30;;
177;SDS011;77;48.792;9.032;2023-03-20T14:36:54;4.27;;;2.50;;
177;SDS011;77;48.792;9.032;2023-03-20T14:39:25;3.50;;;2.70;;
177;SDS011;77;48.792;9.032;2023-03-20T14:41:58;5.47;;;2.70;;
177;SDS011;77;48.792;9.032;2023-03-20T14:44:27;3.87;;;2.43;;
177;SDS011;77;48.792;9.032;2023-03-20T14:46:57;3.50;;;2.50;;
177;SDS011;77;48.792;9.032;2023-03-20T14:49:28;3.23;;;2.40;;
177;SDS011;77;48.792;9.032;2023-03-20T14:51:59;3.00;;;2.33;;
177;SDS011;77;48.792;9.032;2023-03-20T14:54:26;3.93;;;2.73;;
177;SDS011;77;48.792;9.032;2023-03-20T14:56:51;3.20;;;2.30;;
177;SDS011;77;48.792;9.032;2023-03-20T14:59:17;2.77;;;2.27;;
177;SDS011;77;48.792;9.032;2023-03-20T15:01:44;3.10;;;2.27;;
177;SDS011;77;48.792;9.032;2023-03-20T15:04:13;2.90;;;2.20;;
177;SDS011;77;48.792;9.032;2023-03-20T15:06:44;2.67;;;2.00;;
177;SDS011;77;48.792;9.032;2023-03-20T15:09:12;2.43;;;2.00;;
177;SDS011;77;48.792;9.032;2023-03-20T15:11:38;2.50;;;2.00;;
177;SDS011;77;48.792;9.032;2023-03-20T15:14:05;3.13;;;2.30;;
177;SDS011;77;48.792;9.032;2023-03-20T15:16:32;2.30;;;2.00;;
177;SDS011;77;48.792;9.032;2023-03-20T15:18:57;3.13;;;2.20;;
177;SDS011;77;48.792;9.032;2023-03-20T15:21:26;2.73;;;2.30;;
177;SDS011;77;48.792;9.032;2023-03-20T15:23:52;4.63;;;2.40;;
177;SDS011;77;48.792;9.032;2023-03-20T15:26:18;3.47;;;2.40;;
177;SDS011;77;48.792;9.032;2023-03-20T15:28:44;2.90;;;2.20;;
177;SDS011;77;48.792;9.032;2023-03-20T15:31:14;3.40;;;2.70;;
177;SDS011;77;48.792;9.032;2023-03-20T15:33:42;3.10;;;2.57;;
177;SDS011;77;48.792;9.032;2023-03-20T15:36:08;2.90;;;2.27;;
177;SDS011;77;48.792;9.032;2023-03-20T15:38:34;4.00;;;3.00;;
177;SDS011;77;48.792;9.032;2023-03-20T15:41:02;3.80;;;2.50;;
177;SDS011;77;48.792;9.032;2023-03-20T15:43:29;2.97;;;2.33;;
177;SDS011;77;48.792;9.032;2023-03-20T15:45:55;3.60;;;2.43;;
177;SDS011;77;48.792;9.032;2023-03-20T15:48:21;3.30;;;2.50;;
177;SDS011;77;48.792;9.032;2023-03-20T15:50:47;3.33;;;2.50;;
177;SDS011;77;48.792;9.032;2023-03-20T15:53:14;4.67;;;2.77;;
177;SDS011;77;48.792;9.032;2023-03-20T15:55:40;3.63;;;3.00;;
177;SDS011;77;48.792;9.032;2023-03-20T15:58:05;3.60;;;2.80;;
177;SDS011;77;48.792;9.032;2023-03-20T16:00:32;4.07;;;2.70;;
177;SDS011;77;48.792;9.032;2023-03-20T16:02:59;3.40;;;2.80;;
177;SDS011;77;48.792;9.032;2023-03-20T16:05:25;2.70;;;2.10;;
177;SDS011;77;48.792;9.032;2023-03-20T16:07:51;5.90;;;2.90;;
177;SDS011;77;48.792;9.032;2023-03-20T16:10:17;6.50;;;2.87;;
177;SDS011;77;48.792;9.032;2023-03-20T16:12:45;4.30;;;2.80;;
177;SDS011;77;48.792;9.032;2023-03-20T16:15:12;3.73;;;2.73;;
177;SDS011;77;48.792;9.032;2023-03-20T16:17:39;4.20;;;2.97;;
177;SDS011;77;48.792;9.032;2023-03-20T16:20:05;4.67;;;3.20;;
177;SDS011;77;48.792;9.032;2023-03-20T16:22:30;5.73;;;2.80;;
177;SDS011;77;48.792;9.032;2023-03-20T16:24:57;4.60;;;2.93;;
177;SDS011;77;48.792;9.032;2023-03-20T16:27:25;5.13;;;3.17;;
177;SDS011;77;48.792;9.032;2023-03-20T16:29:51;4.93;;;3.03;;
177;SDS011;77;48.792;9.032;2023-03-20T16:32:19;4.70;;;2.87;;
177;SDS011;77;48.792;9.032;2023-03-20T16:34:47;4.00;;;3.07;;
177;SDS011;77;48.792;9.032;2023-03-20T16:37:21;4.93;;;2.80;;
177;SDS011;77;48.792;9.032;2023-03-20T16:39:47;3.57;;;2.70;;
177;SDS011;77;48.792;9.032;2023-03-20T16:42:20;3.50;;;2.83;;
177;SDS011;77;48.792;9.032;2023-03-20T16:44:46;3.60;;;2.80;;
177;SDS011;77;48.792;9.032;2023-03-20T16:47:15;5.53;;;3.13;;
177;SDS011;77;48.792;9.032;2023-03-20T16:50:01;6.90;;;3.07;;
177;SDS011;77;48.792;9.032;2023-03-20T16:52:27;3.70;;;2.70;;
177;SDS011;77;48.792;9.032;2023-03-20T16:54:55;8.03;;;2.87;;
177;SDS011;77;48.792;9.032;2023-03-20T16:57:20;6.73;;;3.07;;
177;SDS011;77;48.792;9.032;2023-03-20T16:59:45;3.50;;;2.73;;
177;SDS011;77;48.792;9.032;2023-03-20T17:02:11;5.20;;;3.10;;
177;SDS011;77;48.792;9.032;2023-03-20T17:04:38;4.50;;;2.67;;